Impacts TAF Board INFO
FOR SITUATIONAL AWARENESS. NOT TO BE USED FOR FLIGHT PLANNING PURPOSES.
IDs:

KANB - Anniston Metro, AL, US

Issued at 1135 UTC 20 Jan 2018
Updated at 1255 UTC 20 Jan 2018
Potential Impact None Slight Moderate High
Time1253Z 20/13Z 20/14Z 20/15Z 20/16Z 20/17Z 20/18Z 20/19Z 20/20Z 20/21Z 20/22Z 20/23Z 21/00Z 21/01Z>>
Type OBS PRVL PRVL PRVL PRVL PRVL PRVL PRVL PRVL PRVL PRVL PRVL PRVL PRVL
VIS 10 >6 >6 >6 >6 >6 >6 >6 >6 >6 >6 >6 >6 >6
CIG 42 40 40 40 40 100 100 100 100 100 100 100 -- --
Cover OVC OVC OVC OVC OVC BKN BKN BKN BKN BKN BKN BKN SCT SCT
FltCat VFR VFR VFR VFR VFR VFR VFR VFR VFR VFR VFR VFR VFR VFR
WX -- -- -- -- -- -- -- -- -- -- -- -- -- --
WDir VRB VRB VRB VRB VRB 240 240 240 240 240 240 240 VRB VRB
WSpd 0 0 0 0 0 5 5 5 5 5 5 5 0 0
WGst -- -- -- -- -- -- -- -- -- -- -- -- -- --

Raw TAF
KANB 201135Z 2012/2112 00000KT P6SM OVC040
  FM201700 24005KT P6SM BKN100
  FM210000 00000KT P6SM SCT100


Raw METAR
KANB 201253Z AUTO 00000KT 10SM OVC042 02/M05 A3029 RMK AO2 SLP267 T00171050
KANB 201153Z AUTO 00000KT 10SM OVC040 01/M05 A3028 RMK AO2 SLP265 T00111050 10011 21039 53002
KANB 201053Z AUTO 00000KT 10SM OVC039 01/M05 A3028 RMK AO2 SLP262 T00061050
KANB 200953Z AUTO 00000KT 10SM OVC039 00/M06 A3028 RMK AO2 SLP261 T00001056

METAR Board
Radar Display
Forecast Discussion

FOR SITUATIONAL AWARENESS. NOT TO BE USED FOR FLIGHT PLANNING PURPOSES.